createdAt,value
2023-03-03T00:01:37.662Z,39.47
2023-03-03T00:04:05.052Z,35.42
2023-03-03T00:06:32.694Z,35.45
2023-03-03T00:09:00.429Z,36.67
2023-03-03T00:11:27.727Z,31.40
2023-03-03T00:13:56.739Z,36.90
2023-03-03T00:16:39.750Z,36.53
2023-03-03T00:19:15.818Z,36.47
2023-03-03T00:21:46.708Z,35.10
2023-03-03T00:24:15.111Z,38.05
2023-03-03T00:26:49.051Z,33.83
2023-03-03T00:29:32.422Z,25.73
2023-03-03T00:32:18.712Z,35.28
2023-03-03T00:34:46.410Z,34.15
2023-03-03T00:37:36.239Z,36.72
2023-03-03T00:40:15.124Z,35.25
2023-03-03T00:42:47.354Z,36.50
2023-03-03T00:45:39.260Z,33.65
2023-03-03T00:48:30.012Z,36.70
2023-03-03T00:51:00.461Z,37.85
2023-03-03T00:53:30.398Z,35.47
2023-03-03T00:55:58.416Z,37.08
2023-03-03T00:58:27.647Z,34.85
2023-03-03T01:00:57.662Z,39.42
2023-03-03T01:03:33.391Z,36.55
2023-03-03T01:06:00.756Z,38.17
2023-03-03T01:08:28.000Z,36.95
2023-03-03T01:10:57.746Z,38.30
2023-03-03T01:13:28.832Z,40.03
2023-03-03T01:15:57.508Z,38.45
2023-03-03T01:18:25.248Z,35.40
2023-03-03T01:20:52.933Z,35.80
2023-03-03T01:23:20.266Z,37.17
2023-03-03T01:25:47.967Z,34.33
2023-03-03T01:28:15.621Z,39.65
2023-03-03T01:30:43.035Z,35.80
2023-03-03T01:33:10.336Z,38.75
2023-03-03T01:35:37.999Z,38.60
2023-03-03T01:38:05.368Z,37.78
2023-03-03T01:40:32.984Z,37.55
2023-03-03T01:43:01.638Z,38.75
2023-03-03T01:45:31.774Z,34.20
2023-03-03T01:48:04.833Z,37.40
2023-03-03T01:50:37.137Z,34.67
2023-03-03T01:53:07.420Z,35.08
2023-03-03T01:55:39.800Z,35.22
2023-03-03T01:58:13.541Z,36.17
2023-03-03T02:00:44.677Z,39.67
2023-03-03T02:03:12.420Z,36.72
2023-03-03T02:05:42.373Z,35.95
2023-03-03T02:08:12.583Z,38.17
2023-03-03T02:10:41.369Z,36.00
2023-03-03T02:13:08.671Z,36.45
2023-03-03T02:15:37.094Z,37.22
2023-03-03T02:18:09.575Z,34.75
2023-03-03T02:20:45.142Z,37.47
2023-03-03T02:23:30.252Z,35.53
2023-03-03T02:25:59.174Z,33.72
2023-03-03T02:28:33.292Z,39.15
2023-03-03T02:31:11.234Z,39.05
2023-03-03T02:33:45.569Z,39.03
2023-03-03T02:36:18.230Z,37.95
2023-03-03T02:39:23.287Z,35.30
2023-03-03T02:41:56.496Z,36.63
2023-03-03T02:44:30.424Z,35.33
2023-03-03T02:46:59.009Z,39.45
2023-03-03T02:49:28.853Z,35.55
2023-03-03T02:51:57.911Z,38.85
2023-03-03T02:54:27.762Z,38.08
2023-03-03T02:56:54.875Z,37.78
2023-03-03T02:59:22.377Z,38.15
2023-03-03T03:01:51.619Z,36.40
2023-03-03T03:04:23.977Z,39.45
2023-03-03T03:06:52.784Z,36.92
2023-03-03T03:09:23.086Z,36.63
2023-03-03T03:11:52.666Z,37.85
2023-03-03T03:14:24.157Z,38.38
2023-03-03T03:16:52.499Z,35.60
2023-03-03T03:19:20.765Z,36.65
2023-03-03T03:21:48.503Z,35.03
2023-03-03T03:24:16.920Z,37.05
2023-03-03T03:26:49.138Z,35.60
2023-03-03T03:29:16.871Z,37.13
2023-03-03T03:31:44.553Z,34.15
2023-03-03T03:34:11.885Z,36.25
2023-03-03T03:36:40.002Z,37.67
2023-03-03T03:39:08.188Z,34.08
2023-03-03T03:41:38.869Z,33.15
2023-03-03T03:44:06.327Z,33.95
2023-03-03T03:46:34.108Z,36.95
2023-03-03T03:49:02.183Z,34.53
2023-03-03T03:51:29.525Z,36.15
2023-03-03T03:53:57.341Z,39.97
2023-03-03T03:56:24.746Z,34.88
2023-03-03T03:58:55.179Z,36.03
2023-03-03T04:01:23.161Z,38.55
2023-03-03T04:03:52.415Z,37.22
2023-03-03T04:06:23.409Z,39.53
2023-03-03T04:08:52.012Z,43.83
2023-03-03T04:11:22.649Z,40.47
2023-03-03T04:13:49.911Z,42.40
2023-03-03T04:16:17.960Z,40.45
2023-03-03T04:18:46.668Z,42.67
2023-03-03T04:21:16.981Z,42.30
2023-03-03T04:23:46.591Z,43.95
2023-03-03T04:26:14.576Z,45.53
2023-03-03T04:28:44.273Z,43.10
2023-03-03T04:31:12.349Z,44.83
2023-03-03T04:33:39.542Z,46.00
2023-03-03T04:36:08.899Z,39.42
2023-03-03T04:38:36.137Z,39.38
2023-03-03T04:41:03.963Z,41.42
2023-03-03T04:43:35.593Z,41.85
2023-03-03T04:46:05.838Z,46.33
2023-03-03T04:48:34.490Z,47.03
2023-03-03T04:51:02.717Z,48.65
2023-03-03T04:53:33.528Z,43.92
2023-03-03T04:56:00.920Z,47.53
2023-03-03T04:58:28.598Z,46.75
2023-03-03T05:00:57.970Z,46.58
2023-03-03T05:03:28.168Z,50.97
2023-03-03T05:05:55.695Z,45.00
2023-03-03T05:08:23.088Z,48.33
2023-03-03T05:10:54.343Z,50.35
2023-03-03T05:13:22.234Z,47.20
2023-03-03T05:15:52.194Z,49.28
2023-03-03T05:18:20.770Z,42.40
2023-03-03T05:20:49.503Z,42.55
2023-03-03T05:23:17.401Z,48.47
2023-03-03T05:25:47.387Z,42.50
2023-03-03T05:28:14.676Z,40.33
2023-03-03T05:30:43.812Z,42.13
2023-03-03T05:33:15.009Z,42.25
2023-03-03T05:35:43.308Z,44.83
2023-03-03T05:38:11.102Z,42.42
2023-03-03T05:40:39.678Z,41.05
2023-03-03T05:43:07.524Z,39.58
2023-03-03T05:45:35.608Z,38.88
2023-03-03T05:48:04.942Z,40.83
2023-03-03T05:50:32.268Z,43.70
2023-03-03T05:52:59.593Z,42.28
2023-03-03T05:55:26.893Z,46.03
2023-03-03T05:57:57.358Z,46.58
2023-03-03T06:00:24.801Z,43.75
2023-03-03T06:02:52.405Z,40.70
2023-03-03T06:05:21.212Z,40.53
2023-03-03T06:07:49.375Z,44.92
2023-03-03T06:10:16.774Z,42.08
2023-03-03T06:12:47.592Z,42.80
2023-03-03T06:15:14.993Z,39.05
2023-03-03T06:17:42.894Z,37.83
2023-03-03T06:20:10.874Z,41.15
2023-03-03T06:22:38.229Z,41.35
2023-03-03T06:25:06.465Z,37.78
2023-03-03T06:27:34.427Z,39.97
2023-03-03T06:30:02.003Z,42.00
2023-03-03T06:32:29.644Z,38.92
2023-03-03T06:34:57.053Z,42.80
2023-03-03T06:37:24.426Z,38.35
2023-03-03T06:39:52.779Z,41.40
2023-03-03T06:42:21.183Z,36.95
2023-03-03T06:44:49.027Z,38.53
2023-03-03T06:47:16.314Z,39.35
2023-03-03T06:49:43.679Z,39.72
2023-03-03T06:52:14.805Z,39.08
2023-03-03T06:54:42.212Z,39.00
2023-03-03T06:57:25.548Z,34.88
2023-03-03T06:59:55.493Z,39.38
2023-03-03T07:02:23.764Z,40.63
2023-03-03T07:04:51.285Z,39.45
2023-03-03T07:07:20.760Z,44.65
2023-03-03T07:09:50.544Z,38.15
2023-03-03T07:12:22.878Z,37.30
2023-03-03T07:14:56.062Z,39.38
2023-03-03T07:17:25.869Z,42.42
2023-03-03T07:19:54.058Z,36.50
2023-03-03T07:22:25.629Z,40.30
2023-03-03T07:24:58.237Z,35.60
2023-03-03T07:27:29.063Z,36.25
2023-03-03T07:30:09.825Z,35.65
2023-03-03T07:32:42.377Z,35.45
2023-03-03T07:35:40.501Z,34.83
2023-03-03T07:38:34.752Z,29.90
2023-03-03T07:41:05.446Z,33.33
2023-03-03T07:43:40.488Z,37.53
2023-03-03T07:46:11.621Z,35.65
2023-03-03T07:48:42.038Z,36.90
2023-03-03T07:51:19.983Z,34.38
2023-03-03T07:53:47.779Z,35.67
2023-03-03T07:56:37.701Z,36.72
2023-03-03T07:59:26.100Z,28.90
2023-03-03T08:01:58.674Z,34.45
2023-03-03T08:04:51.081Z,31.20
2023-03-03T08:07:21.984Z,31.33
2023-03-03T08:09:57.259Z,30.58
2023-03-03T08:12:47.726Z,32.80
2023-03-03T08:15:23.397Z,29.15
2023-03-03T08:17:52.474Z,29.85
2023-03-03T08:20:43.972Z,30.23
2023-03-03T08:23:12.458Z,29.25
2023-03-03T08:25:41.097Z,28.40
2023-03-03T08:28:09.637Z,26.92
2023-03-03T08:30:36.864Z,29.88
2023-03-03T08:33:05.161Z,28.27
2023-03-03T08:35:32.504Z,27.00
2023-03-03T08:38:00.462Z,28.55
2023-03-03T08:40:28.132Z,30.98
2023-03-03T08:42:55.320Z,23.58
2023-03-03T08:45:22.702Z,26.58
2023-03-03T08:47:50.252Z,24.63
2023-03-03T08:50:18.283Z,26.65
2023-03-03T08:52:46.009Z,23.90
2023-03-03T08:55:13.954Z,22.63
2023-03-03T08:57:41.314Z,21.95
2023-03-03T09:00:11.084Z,20.83
2023-03-03T09:02:38.374Z,25.63
2023-03-03T09:05:06.505Z,25.52
2023-03-03T09:07:34.769Z,20.25
2023-03-03T09:10:02.214Z,20.63
2023-03-03T09:12:34.592Z,21.80
2023-03-03T09:15:24.245Z,21.35
2023-03-03T09:17:52.197Z,24.13
2023-03-03T09:20:40.312Z,23.15
2023-03-03T09:23:43.191Z,28.20
2023-03-03T09:26:22.560Z,22.55
2023-03-03T09:28:50.533Z,22.75
2023-03-03T09:31:25.537Z,24.75
2023-03-03T09:33:58.011Z,24.17
2023-03-03T09:36:28.841Z,27.55
2023-03-03T09:38:58.263Z,20.80
2023-03-03T09:41:37.681Z,21.48
2023-03-03T09:44:22.661Z,22.80
2023-03-03T09:47:29.952Z,20.48
2023-03-03T09:50:29.013Z,22.95
2023-03-03T09:53:07.811Z,25.13
2023-03-03T09:55:59.860Z,22.80
2023-03-03T09:58:45.661Z,23.77
2023-03-03T10:01:31.685Z,21.65
2023-03-03T10:04:22.770Z,23.27
2023-03-03T10:07:18.971Z,20.42
2023-03-03T10:10:06.700Z,25.80
2023-03-03T10:12:39.297Z,24.00
2023-03-03T10:15:19.624Z,23.45
2023-03-03T10:17:50.825Z,22.98
2023-03-03T10:20:50.697Z,26.15
2023-03-03T10:23:32.495Z,23.88
2023-03-03T10:26:06.084Z,26.27
2023-03-03T10:29:02.874Z,27.20
2023-03-03T10:31:37.904Z,29.00
2023-03-03T10:34:05.505Z,25.45
2023-03-03T10:36:38.647Z,26.80
2023-03-03T10:39:06.835Z,25.35
2023-03-03T10:41:59.717Z,28.63
2023-03-03T10:44:31.306Z,24.30
2023-03-03T10:46:58.847Z,26.63
2023-03-03T10:49:33.172Z,23.95
2023-03-03T10:52:40.685Z,23.88
2023-03-03T10:55:27.256Z,24.70
2023-03-03T10:58:14.771Z,24.10
2023-03-03T11:00:57.552Z,21.88
2023-03-03T11:03:44.896Z,24.88
2023-03-03T11:06:35.803Z,24.30
2023-03-03T11:09:08.372Z,27.10
2023-03-03T11:11:36.025Z,25.88
2023-03-03T11:14:06.924Z,27.85
2023-03-03T11:17:01.406Z,29.65
2023-03-03T11:20:09.942Z,27.88
2023-03-03T11:22:49.510Z,28.02
2023-03-03T11:25:43.368Z,26.00
2023-03-03T11:28:30.603Z,25.08
2023-03-03T11:30:59.047Z,27.00
2023-03-03T11:33:32.261Z,24.58
2023-03-03T11:36:00.004Z,34.42
2023-03-03T11:39:05.352Z,24.27
2023-03-03T11:41:38.249Z,29.40
2023-03-03T11:44:29.598Z,26.38
2023-03-03T11:47:02.415Z,31.80
2023-03-03T11:49:37.084Z,23.65
2023-03-03T11:54:51.699Z,35.40
2023-03-03T11:57:25.908Z,28.52
2023-03-03T12:00:08.734Z,26.13
2023-03-03T12:02:59.584Z,26.85
2023-03-03T12:05:29.781Z,24.85
2023-03-03T12:08:11.563Z,27.02
2023-03-03T12:11:00.159Z,31.60
2023-03-03T12:13:54.037Z,25.85
2023-03-03T12:16:41.809Z,25.27
2023-03-03T12:19:18.145Z,28.70
2023-03-03T12:22:14.273Z,28.33
2023-03-03T12:25:09.192Z,25.77
2023-03-03T12:27:45.719Z,27.90
2023-03-03T12:30:19.784Z,30.45
2023-03-03T12:33:27.562Z,29.63
2023-03-03T12:36:19.241Z,25.63
2023-03-03T12:38:47.612Z,23.48
2023-03-03T12:41:32.746Z,24.50
2023-03-03T12:44:14.534Z,28.85
2023-03-03T12:47:14.899Z,23.92
2023-03-03T12:50:05.045Z,25.25
2023-03-03T12:52:45.102Z,26.80
2023-03-03T12:55:21.952Z,24.55
2023-03-03T12:57:59.332Z,32.80
2023-03-03T13:00:27.734Z,22.80
2023-03-03T13:02:56.942Z,24.90
2023-03-03T13:05:36.205Z,25.58
2023-03-03T13:08:06.509Z,22.50
2023-03-03T13:10:53.749Z,23.15
2023-03-03T13:13:44.249Z,28.50
2023-03-03T13:16:17.263Z,25.40
2023-03-03T13:18:51.957Z,27.33
2023-03-03T13:24:37.536Z,29.75
2023-03-03T13:27:15.813Z,23.42
2023-03-03T13:29:50.517Z,30.75
2023-03-03T13:32:23.808Z,26.40
2023-03-03T13:34:56.310Z,24.48
2023-03-03T13:37:27.774Z,27.00
2023-03-03T13:40:15.305Z,26.67
2023-03-03T13:42:50.555Z,24.00
2023-03-03T13:45:48.780Z,27.42
2023-03-03T13:48:31.526Z,24.08
2023-03-03T13:51:10.453Z,26.23
2023-03-03T13:53:44.773Z,25.30
2023-03-03T13:56:15.862Z,23.70
2023-03-03T13:59:02.302Z,25.60
2023-03-03T14:01:56.936Z,25.33
2023-03-03T14:04:33.278Z,27.80
2023-03-03T14:07:11.914Z,25.85
2023-03-03T14:09:59.068Z,28.02
2023-03-03T14:12:39.057Z,24.80
2023-03-03T14:15:28.004Z,26.92
2023-03-03T14:18:23.294Z,28.42
2023-03-03T14:23:27.489Z,26.33
2023-03-03T14:26:00.927Z,27.02
2023-03-03T14:28:30.582Z,29.35
2023-03-03T14:31:00.624Z,27.55
2023-03-03T14:33:32.440Z,27.40
2023-03-03T14:35:59.790Z,29.02
2023-03-03T14:38:34.784Z,24.20
2023-03-03T14:41:22.031Z,27.52
2023-03-03T14:44:12.901Z,25.70
2023-03-03T14:46:41.869Z,29.13
2023-03-03T14:49:32.005Z,27.98
2023-03-03T14:52:09.426Z,27.05
2023-03-03T14:54:41.607Z,26.45
2023-03-03T14:57:41.340Z,25.85
2023-03-03T15:00:34.627Z,26.17
2023-03-03T15:03:07.091Z,27.30
2023-03-03T15:05:35.142Z,31.65
2023-03-03T15:08:06.325Z,25.33
2023-03-03T15:10:38.251Z,26.58
2023-03-03T15:13:21.251Z,32.25
2023-03-03T15:15:52.669Z,25.65
2023-03-03T15:18:21.350Z,26.95
2023-03-03T15:20:57.243Z,27.35
2023-03-03T15:23:47.295Z,29.02
2023-03-03T15:26:29.492Z,27.95
2023-03-03T15:29:16.931Z,28.33
2023-03-03T15:32:15.592Z,26.77
2023-03-03T15:35:21.125Z,26.92
2023-03-03T15:38:00.388Z,25.95
2023-03-03T15:40:34.954Z,27.48
2023-03-03T15:43:26.893Z,28.67
2023-03-03T15:46:06.947Z,27.20
2023-03-03T15:48:54.416Z,26.90
2023-03-03T15:51:50.718Z,27.48
2023-03-03T15:55:00.052Z,27.85
2023-03-03T15:57:28.562Z,25.40
2023-03-03T16:00:12.859Z,28.10
2023-03-03T16:02:59.057Z,31.25
2023-03-03T16:05:43.094Z,31.70
2023-03-03T16:08:17.087Z,28.73
2023-03-03T16:11:10.849Z,28.52
2023-03-03T16:13:49.569Z,30.42
2023-03-03T16:16:47.532Z,32.60
2023-03-03T16:19:34.742Z,31.20
2023-03-03T16:22:11.051Z,29.30
2023-03-03T16:24:53.726Z,31.08
2023-03-03T16:27:21.013Z,29.75
2023-03-03T16:30:19.295Z,31.08
2023-03-03T16:33:14.392Z,31.83
2023-03-03T16:35:52.337Z,29.55
2023-03-03T16:38:43.193Z,31.60
2023-03-03T16:41:26.257Z,32.88
2023-03-03T16:44:04.752Z,36.28
2023-03-03T16:46:38.302Z,45.10
2023-03-03T16:49:19.681Z,37.90
2023-03-03T16:51:51.499Z,38.33
2023-03-03T16:54:33.904Z,40.20
2023-03-03T16:57:33.394Z,38.50
2023-03-03T17:00:22.270Z,35.83
2023-03-03T17:02:53.176Z,43.90
2023-03-03T17:05:25.320Z,38.40
2023-03-03T17:08:32.468Z,40.08
2023-03-03T17:11:20.559Z,33.03
2023-03-03T17:14:04.369Z,34.75
2023-03-03T17:16:51.793Z,33.72
2023-03-03T17:19:29.883Z,31.80
2023-03-03T17:22:13.794Z,29.67
2023-03-03T17:25:04.364Z,30.65
2023-03-03T17:27:39.786Z,34.35
2023-03-03T17:30:35.660Z,37.28
2023-03-03T17:33:06.525Z,40.13
2023-03-03T17:35:45.351Z,37.65
2023-03-03T17:38:27.736Z,38.40
2023-03-03T17:41:03.645Z,43.20
2023-03-03T17:43:52.080Z,37.75
2023-03-03T17:46:25.890Z,52.28
2023-03-03T17:49:23.395Z,54.83
2023-03-03T17:51:50.794Z,56.22
2023-03-03T17:54:40.185Z,47.33
2023-03-03T17:57:14.191Z,45.53
2023-03-03T17:59:58.889Z,41.92
2023-03-03T18:03:01.613Z,60.53
2023-03-03T18:05:36.382Z,57.00
2023-03-03T18:08:20.914Z,55.05
2023-03-03T18:11:04.046Z,55.55
2023-03-03T18:14:07.589Z,43.38
2023-03-03T18:16:38.448Z,40.45
2023-03-03T18:19:25.489Z,41.38
2023-03-03T18:22:06.506Z,44.97
2023-03-03T18:24:38.501Z,52.22
2023-03-03T18:27:34.428Z,46.35
2023-03-03T18:30:08.511Z,45.45
2023-03-03T18:32:45.518Z,46.67
2023-03-03T18:35:35.659Z,46.72
2023-03-03T18:38:19.983Z,42.85
2023-03-03T18:40:53.246Z,32.00
2023-03-03T18:43:43.618Z,40.20
2023-03-03T18:46:26.920Z,45.65
2023-03-03T18:49:02.392Z,42.70
2023-03-03T18:51:45.902Z,44.35
2023-03-03T18:54:13.179Z,40.97
2023-03-03T18:57:01.136Z,48.95
2023-03-03T18:59:35.322Z,48.72
2023-03-03T19:02:22.678Z,50.22
2023-03-03T19:05:10.289Z,49.20
2023-03-03T19:07:41.111Z,46.67
2023-03-03T19:10:40.150Z,44.53
2023-03-03T19:13:34.687Z,46.15
2023-03-03T19:16:05.311Z,36.83
2023-03-03T19:18:52.798Z,43.10
2023-03-03T19:21:33.289Z,46.90
2023-03-03T19:24:02.137Z,52.20
2023-03-03T19:26:45.352Z,43.85
2023-03-03T19:29:52.276Z,48.42
2023-03-03T19:32:49.583Z,47.47
2023-03-03T19:35:23.758Z,53.75
2023-03-03T19:37:50.993Z,49.25
2023-03-03T19:40:43.299Z,47.33
2023-03-03T19:43:22.588Z,46.35
2023-03-03T19:46:10.123Z,46.85
2023-03-03T19:49:17.204Z,46.03
2023-03-03T19:51:51.498Z,59.38
2023-03-03T19:54:54.554Z,53.42
2023-03-03T19:57:34.757Z,49.88
2023-03-03T20:00:08.194Z,50.50
2023-03-03T20:03:18.750Z,49.47
2023-03-03T20:05:50.631Z,45.20
2023-03-03T20:08:31.432Z,42.45
2023-03-03T20:11:16.007Z,58.60
2023-03-03T20:13:51.875Z,48.90
2023-03-03T20:16:30.587Z,45.92
2023-03-03T20:18:59.269Z,46.05
2023-03-03T20:21:38.031Z,50.92
2023-03-03T20:24:05.722Z,47.83
2023-03-03T20:27:03.761Z,43.45
2023-03-03T20:29:37.777Z,37.30
2023-03-03T20:32:12.569Z,27.65
2023-03-03T20:35:03.011Z,45.03
2023-03-03T20:37:49.975Z,43.08
2023-03-03T20:40:28.052Z,39.53
2023-03-03T20:43:03.659Z,42.67
2023-03-03T20:45:38.477Z,42.35
2023-03-03T20:48:31.371Z,39.45
2023-03-03T20:51:09.078Z,39.40
2023-03-03T20:53:45.473Z,43.17
2023-03-03T20:56:32.838Z,43.42
2023-03-03T20:59:21.688Z,42.10
2023-03-03T21:01:56.477Z,56.90
2023-03-03T21:06:52.087Z,82.72
2023-03-03T21:09:25.481Z,93.43
2023-03-03T21:11:53.091Z,54.03
2023-03-03T21:14:25.174Z,59.25
2023-03-03T21:16:56.914Z,54.53
2023-03-03T21:19:28.832Z,44.03
2023-03-03T21:21:57.019Z,40.53
2023-03-03T21:24:44.477Z,52.88
2023-03-03T21:27:34.118Z,53.50
2023-03-03T21:30:12.410Z,47.83
2023-03-03T21:32:45.082Z,50.75
2023-03-03T21:35:15.395Z,49.80
2023-03-03T21:37:48.005Z,53.25
2023-03-03T21:40:21.072Z,51.60
2023-03-03T21:42:48.400Z,49.00
2023-03-03T21:45:16.940Z,53.83
2023-03-03T21:47:44.655Z,56.25
2023-03-03T21:50:12.737Z,66.07
2023-03-03T21:52:40.267Z,64.13
2023-03-03T21:55:08.577Z,54.13
2023-03-03T21:57:36.440Z,56.97
2023-03-03T22:00:06.968Z,52.13
2023-03-03T22:02:35.508Z,49.95
2023-03-03T22:05:04.105Z,52.22
2023-03-03T22:07:31.681Z,45.85
2023-03-03T22:09:59.090Z,43.63
2023-03-03T22:12:26.564Z,40.78
2023-03-03T22:14:53.999Z,36.08
2023-03-03T22:17:21.107Z,45.05
2023-03-03T22:19:48.424Z,48.75
2023-03-03T22:22:15.877Z,43.78
2023-03-03T22:24:43.791Z,47.17
2023-03-03T22:27:12.278Z,47.97
2023-03-03T22:29:39.518Z,57.22
2023-03-03T22:32:07.194Z,55.90
2023-03-03T22:34:36.196Z,49.05
2023-03-03T22:37:03.293Z,43.95
2023-03-03T22:39:30.821Z,49.17
2023-03-03T22:41:58.374Z,41.35
2023-03-03T22:44:25.609Z,36.95
2023-03-03T22:46:52.860Z,42.70
2023-03-03T22:49:20.166Z,45.92
2023-03-03T22:51:47.805Z,40.50
2023-03-03T22:54:15.222Z,42.10
2023-03-03T22:56:42.663Z,46.65
2023-03-03T22:59:10.572Z,40.88
2023-03-03T23:01:37.784Z,43.80
2023-03-03T23:04:05.655Z,40.70
2023-03-03T23:06:33.107Z,40.92
2023-03-03T23:09:00.393Z,36.47
2023-03-03T23:11:28.143Z,42.40
2023-03-03T23:13:55.455Z,41.15
2023-03-03T23:16:22.731Z,40.67
2023-03-03T23:18:49.950Z,48.90
2023-03-03T23:21:17.716Z,44.67
2023-03-03T23:23:45.060Z,40.97
2023-03-03T23:26:12.530Z,38.28
2023-03-03T23:28:39.852Z,40.90
2023-03-03T23:31:08.002Z,39.78
2023-03-03T23:33:35.435Z,38.55
2023-03-03T23:36:02.856Z,46.97
2023-03-03T23:38:29.978Z,36.85
2023-03-03T23:40:57.577Z,36.80
2023-03-03T23:43:24.859Z,35.10
2023-03-03T23:45:52.120Z,38.17
2023-03-03T23:48:20.856Z,44.50
2023-03-03T23:50:49.069Z,51.38
2023-03-03T23:53:16.619Z,48.40
2023-03-03T23:55:45.944Z,58.70
2023-03-03T23:58:13.411Z,67.70
